PWSweather.com
Personal Weather Stations
Station Observations
TORRESP
Madrid Barajas (spain), MadridES

Madrid Barajas (spain)MadridES

Lat: 40.44408, Lon: -3.58573

Elevation: 2066

Station Type: WMR968NX & PCE FWS20

http://www.torresp.com

Latest ConditionsUpdated 10:00:02 PM GMT+01:01 Thursday, Sep 21, 2017
Currently Today's Max Today's Min Today's Average
Temperature 74.8°F23.8°C 87.6°F30.9°C 1.8°F-16.8°C 42.7°F5.9°C
Dew Point 41.4°F5.2°C 47.1°F8.4°C 0.0°F-17.8°C 22.8°F-5.1°C
Winds 2.2 mph ENE3.5 kmh ENE 6.3 mph NW10.1 kmh NW - 1.6 mph 2.6 kmh
Wind Gusts 4.5 mph7.2 kmh 11.0 mph17.7 kmh - -
Humidity 30% 51% 0% 19%
Pressure 30.05 in1017.6 mb 30.11 in1019.6 mb 27.70 in938.0 mb -
Hour Temp Dew Point Humidity Winds Wind Gusts Pressure Precip Precip Rate Daily Precip Total
10:00 PM 74.8°F23.8°C 41.4°F5.2°C 30% 2.2 mph ENE3.5 kmh ENE 4.5 mph7.2 kmh 30.05 in1017.6 mb 0.00 in0.0 mm 0.00 in0.0 mm 0.00 in0.0 mm
09:00 PM 77.0°F25.0°C 37.5°F3.1°C 24% 1.6 mph WNW2.6 kmh WNW 3.1 mph5.0 kmh 30.04 in1017.3 mb 0.00 in0.0 mm 0.00 in0.0 mm 0.00 in0.0 mm
08:00 PM 78.1°F25.6°C 37.3°F2.9°C 23% Calm Calm -- 30.04 in1017.3 mb 0.00 in0.0 mm 0.00 in0.0 mm 0.00 in0.0 mm
07:00 PM 81.1°F27.3°C 35.0°F1.7°C 19% 2.2 mph W3.5 kmh W 6.9 mph11.1 kmh 30.03 in1016.9 mb 0.00 in0.0 mm 0.00 in0.0 mm 0.00 in0.0 mm
06:00 PM 84.9°F29.4°C 36.7°F2.6°C 18% Calm Calm 6.0 mph9.7 kmh 30.03 in1016.9 mb 0.00 in0.0 mm 0.00 in0.0 mm 0.00 in0.0 mm
05:45 PM 87.6°F30.9°C 37.4°F3.0°C 17% Calm Calm -- 30.02 in1016.6 mb 0.00 in0.0 mm 0.00 in0.0 mm 0.00 in0.0 mm
05:00 PM 86.4°F30.2°C 34.9°F1.6°C 16% 2.2 mph W3.5 kmh W 7.6 mph12.2 kmh 30.03 in1016.9 mb 0.00 in0.0 mm 0.00 in0.0 mm 0.00 in0.0 mm
04:59 PM 1.8°F-16.8°C 0.0°F-17.8°C 0% 2.2 mph NW3.5 kmh NW 10.5 mph16.9 kmh 27.70 in938.0 mb 0.00 in0.0 mm 0.00 in0.0 mm 0.00 in0.0 mm
04:00 PM 85.5°F29.7°C 39.9°F4.4°C 20% 5.4 mph W8.7 kmh W 10.7 mph17.2 kmh 30.03 in1016.9 mb 0.00 in0.0 mm 0.00 in0.0 mm 0.00 in0.0 mm
03:59 PM 1.8°F-16.8°C 0.0°F-17.8°C 0% 6.3 mph NW10.1 kmh NW 11.0 mph17.7 kmh 27.70 in938.0 mb 0.00 in0.0 mm 0.00 in0.0 mm 0.00 in0.0 mm
02:00 PM 83.5°F28.6°C 44.0°F6.7°C 25% 2.2 mph SW3.5 kmh SW 10.7 mph17.2 kmh 30.06 in1017.9 mb 0.00 in0.0 mm 0.00 in0.0 mm 0.00 in0.0 mm
01:59 PM 1.8°F-16.8°C 0.0°F-17.8°C 0% 3.1 mph NW5.0 kmh NW 8.3 mph13.4 kmh 27.73 in939.0 mb 0.00 in0.0 mm 0.00 in0.0 mm 0.00 in0.0 mm
01:00 PM 84.7°F29.3°C 46.1°F7.8°C 26% 1.6 mph SE2.6 kmh SE 3.1 mph5.0 kmh 30.08 in1018.6 mb 0.00 in0.0 mm 0.00 in0.0 mm 0.00 in0.0 mm
12:59 PM 1.8°F-16.8°C 0.0°F-17.8°C 0% 2.2 mph W3.5 kmh W 2.2 mph3.5 kmh 27.76 in940.1 mb 0.00 in0.0 mm 0.00 in0.0 mm 0.00 in0.0 mm
12:00 PM 78.4°F25.8°C 45.3°F7.4°C 31% 2.2 mph ESE3.5 kmh ESE 3.8 mph6.1 kmh 30.10 in1019.3 mb 0.00 in0.0 mm 0.00 in0.0 mm 0.00 in0.0 mm
11:00 AM 76.8°F24.9°C 47.1°F8.4°C 35% Calm Calm 2.2 mph3.5 kmh 30.11 in1019.6 mb 0.00 in0.0 mm 0.00 in0.0 mm 0.00 in0.0 mm
10:00 AM 66.2°F19.0°C 39.2°F4.0°C 37% 3.1 mph NE5.0 kmh NE 7.6 mph12.2 kmh 30.11 in1019.6 mb 0.00 in0.0 mm 0.00 in0.0 mm 0.00 in0.0 mm
09:59 AM 1.8°F-16.8°C 0.0°F-17.8°C 0% 2.2 mph ENE3.5 kmh ENE 5.8 mph9.3 kmh 27.79 in941.1 mb 0.00 in0.0 mm 0.00 in0.0 mm 0.00 in0.0 mm
09:00 AM 61.3°F16.3°C 38.1°F3.4°C 42% 3.8 mph NE6.1 kmh NE 5.4 mph8.7 kmh 30.11 in1019.6 mb 0.00 in0.0 mm 0.00 in0.0 mm 0.00 in0.0 mm
08:59 AM 1.8°F-16.8°C 0.0°F-17.8°C 0% 2.2 mph NE3.5 kmh NE 2.7 mph4.3 kmh 27.79 in941.1 mb 0.00 in0.0 mm 0.00 in0.0 mm 0.00 in0.0 mm
08:00 AM 60.1°F15.6°C 39.2°F4.0°C 46% 3.1 mph N5.0 kmh N 4.5 mph7.2 kmh 30.10 in1019.3 mb 0.00 in0.0 mm 0.00 in0.0 mm 0.00 in0.0 mm
07:00 AM 56.8°F13.8°C 38.9°F3.8°C 51% Calm Calm 3.8 mph6.1 kmh 30.10 in1019.3 mb 0.00 in0.0 mm 0.00 in0.0 mm 0.00 in0.0 mm
06:00 AM 57.9°F14.4°C 38.4°F3.6°C 48% 3.8 mph NE6.1 kmh NE 5.4 mph8.7 kmh 30.07 in1018.3 mb 0.00 in0.0 mm 0.00 in0.0 mm 0.00 in0.0 mm
05:59 AM 1.8°F-16.8°C 0.0°F-17.8°C 0% 3.1 mph NE5.0 kmh NE 4.0 mph6.4 kmh 27.76 in940.1 mb 0.00 in0.0 mm 0.00 in0.0 mm 0.00 in0.0 mm
05:00 AM 1.8°F-16.8°C 0.0°F-17.8°C 0% Calm Calm 2.7 mph4.3 kmh 27.76 in940.1 mb 0.00 in0.0 mm 0.00 in0.0 mm 0.00 in0.0 mm
04:00 AM 1.8°F-16.8°C 0.0°F-17.8°C 0% Calm Calm -- 27.76 in940.1 mb 0.00 in0.0 mm 0.00 in0.0 mm 0.00 in0.0 mm
03:00 AM 59.5°F15.3°C 38.2°F3.4°C 45% Calm Calm 2.2 mph3.5 kmh 30.09 in1019.0 mb 0.00 in0.0 mm 0.00 in0.0 mm 0.00 in0.0 mm
02:00 AM 63.0°F17.2°C 35.6°F2.0°C 36% 1.6 mph NE2.6 kmh NE 4.5 mph7.2 kmh 30.09 in1019.0 mb 0.00 in0.0 mm 0.00 in0.0 mm 0.00 in0.0 mm
01:00 AM 64.6°F18.1°C 38.4°F3.6°C 38% 1.6 mph NNW2.6 kmh NNW 4.5 mph7.2 kmh 30.09 in1019.0 mb 0.00 in0.0 mm 0.00 in0.0 mm 0.00 in0.0 mm
12:59 AM 1.8°F-16.8°C 0.0°F-17.8°C 0% Calm Calm -- 27.76 in940.1 mb 0.00 in0.0 mm 0.00 in0.0 mm 0.00 in0.0 mm
12:00 AM 66.0°F18.9°C 39.0°F3.9°C 37% Calm Calm -- 30.09 in1019.0 mb 0.00 in0.0 mm 0.00 in0.0 mm 0.00 in0.0 mm